Overview Statistics Trail Chart Weather Telemetry Raw packets
 

This is the latest recevied weather packets stored in our database for station/object DL6DJ-15. If no packets are shown the sender has not sent any weather packets the latest 10 day(s).

<< 93 94 95 96 97 98 99 >>
Time Temp. Humidity Pressure Rain* Wind** Luminosity Snow
1787912436 27.78° C 49% 1013.2 hPa - - - -
1787912135 28.33° C 46% 1012.8 hPa - - - -
1787911835 28.33° C 44% 1012.4 hPa - - - -
1787911535 28.33° C 43% 1012.4 hPa - - - -
1787911234 28.33° C 43% 1012 hPa - - - -
1787910934 28.89° C 42% 1011.7 hPa - - - -
1787910633 30° C 39% 1011.6 hPa - - - -
1787910333 30.56° C 39% 1011.8 hPa - - - -
1787910033 31.11° C 39% 1012 hPa - - - -
1787909731 32.22° C 37% 1012 hPa - - - -
1787909431 33.33° C 33% 1012.3 hPa - - - -
1787909131 33.33° C 33% 1012.1 hPa - - - -
1787908830 34.44° C 32% 1012.2 hPa - - - -
1787908529 33.89° C 33% 1011.9 hPa - - - -
1787908229 33.33° C 34% 1011.7 hPa - - - -
1787907929 33.89° C 33% 1011.5 hPa - - - -
1787907628 33.33° C 33% 1011.6 hPa - - - -
1787907328 32.78° C 33% 1011.9 hPa - - - -
1787907028 32.78° C 33% 1012 hPa - - - -
1787906727 33.89° C 30% 1012.1 hPa - - - -
1787906426 34.44° C 32% 1012.2 hPa - - - -
1787906126 33.89° C 32% 1012.3 hPa - - - -
1787905825 33.33° C 33% 1012.4 hPa - - - -
1787905525 33.33° C 31% 1012.6 hPa - - - -
1787905225 33.89° C 32% 1012.9 hPa - - - -

* Rain since midnight (hover to see other rain measurements)
** Current wind speed in m/s (hover to see current wind gust speed)